Terminal Aerodrome Forecast
Issued by NWS

Home | Current Version | Previous Version | Text Only | Print | Product List | Glossary On
Versions: 1 2 3 4 5 6 7 8 9 10 11 12 13 14 15 16 17 18 19 20 21 22 23 24 25 26 27 28 29 30 31 32 33 34 35
862
FTUS41 KBOX 271126
TAFHYA
TAF
KHYA 271126Z 2712/2812 17008KT 1SM BR BKN002
     FM271300 17008KT 4SM BR BKN008
     FM271400 17009KT P6SM BKN150
     FM272000 22011G21KT P6SM BKN090
     FM272100 23011G21KT P6SM SCT090
     FM280300 23012KT P6SM SCT100 WS020/24040KT
     FM280900 23011KT 4SM BR SCT060 WS020/25040KT
     FM281000 24011KT 6SM BR SCT060=

USA.gov is the U.S. government's official web portal to all federal, state and local government web resources and services.